Time;durP1;ratioP1;P1;durP2;ratioP2;P2;SDS_P1;SDS_P2;PMS_P1;PMS_P2;Temp;Humidity;BMP_temperature;BMP_pressure;BME280_temperature;BME280_humidity;BME280_pressure;Samples;Min_cycle;Max_cycle;Signal;HPM_P1;HPM_P2
2022/12/16 00:00:37;;;;;;;71.65;20.75;;;;;;;-6.59;100.00;101323.25;5017576;28;20037;-75
2022/12/16 00:03:02;;;;;;;42.35;19.00;;;;;;;-6.47;100.00;101314.16;5001415;28;20041;-75
2022/12/16 00:05:28;;;;;;;51.00;21.88;;;;;;;-6.39;100.00;101306.88;5033862;28;20069;-75
2022/12/16 00:07:54;;;;;;;52.75;20.38;;;;;;;-6.29;100.00;101318.75;5001296;28;20087;-75
2022/12/16 00:10:21;;;;;;;32.50;17.77;;;;;;;-6.26;100.00;101315.16;5017371;28;20088;-75
2022/12/16 00:12:46;;;;;;;53.45;18.42;;;;;;;-6.18;100.00;101315.75;5033554;28;20124;-75
2022/12/16 00:15:14;;;;;;;46.13;17.85;;;;;;;-6.16;100.00;101306.06;5001139;28;20072;-75
2022/12/16 00:17:40;;;;;;;52.95;21.27;;;;;;;-6.16;100.00;101298.22;5001065;28;20029;-76
2022/12/16 00:20:06;;;;;;;41.80;20.73;;;;;;;-6.18;100.00;101307.03;5000957;28;20029;-75
2022/12/16 00:22:32;;;;;;;28.85;14.98;;;;;;;-6.14;100.00;101306.00;5000974;28;20033;-75
2022/12/16 00:24:57;;;;;;;33.28;17.20;;;;;;;-6.05;100.00;101289.97;5000934;28;20029;-76
2022/12/16 00:27:23;;;;;;;35.60;15.93;;;;;;;-5.95;100.00;101301.81;5000919;28;20418;-75
2022/12/16 00:29:49;;;;;;;32.92;15.90;;;;;;;-5.88;100.00;101303.25;5000743;28;20433;-75
2022/12/16 00:32:15;;;;;;;43.28;17.27;;;;;;;-5.83;100.00;101308.31;5017061;28;20033;-76
2022/12/16 00:34:40;;;;;;;47.72;18.73;;;;;;;-5.90;100.00;101288.50;5000786;28;20482;-75
2022/12/16 00:37:06;;;;;;;56.25;22.10;;;;;;;-5.79;100.00;101302.91;5000488;28;20391;-75
2022/12/16 00:39:31;;;;;;;57.05;24.27;;;;;;;-5.78;100.00;101296.75;5017010;28;20120;-75
2022/12/16 00:41:57;;;;;;;56.38;24.05;;;;;;;-5.79;100.00;101300.28;5000427;28;20110;-76
2022/12/16 00:44:23;;;;;;;58.35;23.42;;;;;;;-5.81;100.00;101294.25;5000615;28;20095;-75
2022/12/16 00:46:49;;;;;;;74.55;32.92;;;;;;;-5.72;100.00;101307.91;5016948;28;20034;-76
2022/12/16 00:49:14;;;;;;;81.20;31.52;;;;;;;-5.81;100.00;101298.63;5000563;28;20426;-75
2022/12/16 00:51:40;;;;;;;90.35;32.17;;;;;;;-5.84;100.00;101307.47;5000401;28;20036;-75
2022/12/16 00:54:06;;;;;;;98.80;34.20;;;;;;;-5.86;100.00;101297.97;5000434;28;20073;-75
2022/12/16 00:56:31;;;;;;;81.97;31.30;;;;;;;-5.89;100.00;101298.94;5032855;28;20048;-76
2022/12/16 00:58:57;;;;;;;80.15;29.25;;;;;;;-5.89;100.00;101301.53;5000385;28;20083;-76
2022/12/16 01:01:23;;;;;;;67.07;22.88;;;;;;;-5.86;100.00;101295.34;5000200;28;20044;-75
2022/12/16 01:03:48;;;;;;;99.82;32.55;;;;;;;-5.81;100.00;101309.97;5016665;28;20037;-76
2022/12/16 01:06:16;;;;;;;96.72;31.70;;;;;;;-5.70;100.00;101308.72;5000412;28;20427;-76
2022/12/16 01:08:47;;;;;;;93.47;32.10;;;;;;;-5.64;100.00;101296.22;5032530;28;20084;-75
2022/12/16 01:11:17;;;;;;;69.82;25.70;;;;;;;-5.60;100.00;101302.22;5032859;28;20033;-76
2022/12/16 01:13:43;;;;;;;89.53;28.50;;;;;;;-5.59;100.00;101299.50;5000106;28;20032;-76
2022/12/16 01:16:09;;;;;;;102.88;28.23;;;;;;;-5.68;100.00;101278.91;5016316;28;20120;-75
2022/12/16 01:18:35;;;;;;;67.30;23.42;;;;;;;-5.64;100.00;101271.78;5000030;28;20546;-75
2022/12/16 01:21:05;;;;;;;60.38;22.08;;;;;;;-5.50;100.00;101289.59;5000043;28;20025;-76
2022/12/16 01:23:32;;;;;;;64.82;24.80;;;;;;;-5.47;100.00;101294.72;4999820;28;20041;-75
2022/12/16 01:25:58;;;;;;;68.57;23.77;;;;;;;-5.46;100.00;101293.81;5032695;28;20040;-76
2022/12/16 01:28:25;;;;;;;55.05;22.23;;;;;;;-5.45;100.00;101287.63;5016067;28;20156;-76
2022/12/16 01:30:56;;;;;;;36.35;15.73;;;;;;;-5.46;100.00;101294.66;5015769;28;20044;-75
2022/12/16 01:33:22;;;;;;;49.88;19.92;;;;;;;-5.51;100.00;101280.88;4999561;28;20430;-76
2022/12/16 01:35:48;;;;;;;42.75;16.48;;;;;;;-5.49;100.00;101288.69;5000148;28;20033;-76
2022/12/16 01:38:14;;;;;;;51.78;19.67;;;;;;;-5.48;100.00;101287.75;5015753;28;20463;-76
2022/12/16 01:40:40;;;;;;;42.88;18.45;;;;;;;-5.47;100.00;101286.88;5015948;28;20041;-76
2022/12/16 01:43:11;;;;;;;35.78;16.25;;;;;;;-5.51;100.00;101288.72;5015396;28;20033;-76
2022/12/16 01:45:37;;;;;;;30.40;13.43;;;;;;;-5.48;100.00;101293.00;5015721;28;20487;-76
2022/12/16 01:48:32;;;;;;;29.38;13.40;;;;;;;-5.52;100.00;101300.16;5015908;28;20037;-77
2022/12/16 01:51:01;;;;;;;27.60;12.80;;;;;;;-5.52;100.00;101294.91;5033184;28;20116;-77
2022/12/16 01:53:27;;;;;;;24.48;11.48;;;;;;;-5.48;100.00;101290.38;5031844;28;20030;-77
2022/12/16 01:55:54;;;;;;;27.55;11.43;;;;;;;-5.44;100.00;101287.59;5015959;28;20071;-77
2022/12/16 01:58:22;;;;;;;28.10;14.10;;;;;;;-5.47;100.00;101287.72;5032037;28;20029;-75
2022/12/16 02:00:49;;;;;;;22.67;10.85;;;;;;;-5.46;100.00;101283.31;4999439;28;20037;-77
2022/12/16 02:03:15;;;;;;;19.42;10.45;;;;;;;-5.42;100.00;101285.78;5015819;28;20128;-77
2022/12/16 02:05:41;;;;;;;19.42;9.98;;;;;;;-5.38;100.00;101278.63;4999670;28;20127;-78
2022/12/16 02:08:25;;;;;;;20.95;8.52;;;;;;;-5.31;100.00;101286.19;5015402;28;20033;-74
2022/12/16 02:11:06;;;;;;;19.55;9.98;;;;;;;-5.24;100.00;101288.56;5015427;28;20030;-75
2022/12/16 02:14:05;;;;;;;33.03;13.40;;;;;;;-5.23;100.00;101288.50;4999502;28;20116;-75
2022/12/16 02:16:54;;;;;;;13.55;8.55;;;;;;;-5.23;100.00;101285.88;5014726;28;20563;-75
2022/12/16 02:19:44;;;;;;;29.27;15.40;;;;;;;-5.23;100.00;101291.13;5032163;28;20072;-75
2022/12/16 02:22:19;;;;;;;23.27;11.88;;;;;;;-5.24;100.00;101288.56;5017907;28;20041;-75
2022/12/16 02:25:00;;;;;;;32.42;13.18;;;;;;;-5.27;100.00;101278.19;5019261;28;20411;-75
2022/12/16 02:27:29;;;;;;;26.15;13.43;;;;;;;-5.23;100.00;101292.91;5019430;28;20508;-74
2022/12/16 02:30:06;;;;;;;30.33;11.55;;;;;;;-5.23;100.00;101293.75;5019335;28;20068;-74
2022/12/16 02:32:42;;;;;;;27.10;11.88;;;;;;;-5.19;100.00;101287.44;5018865;28;20395;-76
2022/12/16 02:35:12;;;;;;;23.98;12.13;;;;;;;-5.10;100.00;101291.50;5035656;28;20039;-74
2022/12/16 02:37:52;;;;;;;19.25;9.02;;;;;;;-5.08;100.00;101292.25;5035510;28;20037;-76
2022/12/16 02:40:57;;;;;;;30.50;12.15;;;;;;;-5.06;100.00;101287.81;5035634;28;20041;-76
2022/12/16 02:43:47;;;;;;;28.15;9.55;;;;;;;-5.22;100.00;101266.59;5035968;28;20045;-76
2022/12/16 02:46:14;;;;;;;45.05;13.00;;;;;;;-5.23;100.00;101272.78;5035581;28;20076;-76
2022/12/16 02:48:41;;;;;;;25.25;9.35;;;;;;;-5.15;100.00;101278.56;5035405;28;20056;-77
2022/12/16 02:51:06;;;;;;;24.98;12.02;;;;;;;-5.11;100.00;101292.38;5002768;28;20045;-76
2022/12/16 02:53:35;;;;;;;29.35;12.52;;;;;;;-5.13;100.00;101296.88;4986516;28;20138;-76
2022/12/16 02:56:17;;;;;;;33.17;12.77;;;;;;;-5.10;100.00;101297.56;5034836;28;20033;-76
2022/12/16 02:59:01;;;;;;;21.08;9.93;;;;;;;-5.16;100.00;101283.84;5018872;28;20128;-76
2022/12/16 03:01:58;;;;;;;25.60;9.45;;;;;;;-5.10;100.00;101292.34;5036127;28;20120;-76
2022/12/16 03:04:36;;;;;;;27.20;9.63;;;;;;;-5.17;100.00;101295.25;5035153;28;20180;-76
2022/12/16 03:07:03;;;;;;;25.27;8.50;;;;;;;-5.22;100.00;101282.34;5018749;28;20041;-76
2022/12/16 03:09:32;;;;;;;34.25;13.43;;;;;;;-5.18;100.00;101275.22;5002348;28;20042;-76
2022/12/16 03:11:58;;;;;;;20.17;9.45;;;;;;;-5.19;100.00;101274.34;5034978;28;20025;-76
2022/12/16 03:14:26;;;;;;;28.70;10.45;;;;;;;-5.26;100.00;101279.91;5035001;28;20041;-77
2022/12/16 03:16:52;;;;;;;33.15;10.52;;;;;;;-5.29;100.00;101275.66;5018356;28;20025;-77
2022/12/16 03:19:19;;;;;;;29.50;11.25;;;;;;;-5.31;100.00;101274.84;5002187;28;20040;-76
2022/12/16 03:21:58;;;;;;;28.33;12.93;;;;;;;-5.29;100.00;101275.66;5034754;28;20025;-76
2022/12/16 03:24:24;;;;;;;6.13;4.65;;;;;;;-5.39;100.00;101258.59;5002589;28;20034;-76
2022/12/16 03:27:27;;;;;;;27.15;11.27;;;;;;;-5.29;100.00;101265.16;5002032;28;20048;-76
2022/12/16 03:30:10;;;;;;;26.40;10.30;;;;;;;-5.30;100.00;101268.69;5034806;28;20060;-76
2022/12/16 03:32:57;;;;;;;28.08;11.43;;;;;;;-5.35;100.00;101263.63;5017888;28;20365;-76
2022/12/16 03:35:46;;;;;;;21.52;8.05;;;;;;;-5.36;100.00;101261.06;5035388;28;20471;-76
2022/12/16 03:38:13;;;;;;;19.48;9.25;;;;;;;-5.41;100.00;101261.25;5017127;28;20092;-76
2022/12/16 03:40:41;;;;;;;23.55;9.65;;;;;;;-5.44;100.00;101264.00;5034139;28;20033;-75
2022/12/16 03:43:07;;;;;;;24.45;10.57;;;;;;;-5.50;100.00;101256.41;4985642;28;20045;-76
2022/12/16 03:45:38;;;;;;;22.02;9.90;;;;;;;-5.46;100.00;101262.34;5034339;28;20033;-76
2022/12/16 03:48:09;;;;;;;31.27;11.52;;;;;;;-5.46;100.00;101265.81;5017918;28;20480;-76
2022/12/16 03:50:36;;;;;;;30.90;11.57;;;;;;;-5.49;100.00;101263.34;5034422;28;20364;-76
2022/12/16 03:53:02;;;;;;;27.23;10.10;;;;;;;-5.43;100.00;101268.31;5034248;28;20055;-76
2022/12/16 03:55:28;;;;;;;23.20;8.63;;;;;;;-5.40;100.00;101265.59;5017836;28;20037;-76
2022/12/16 03:57:56;;;;;;;24.30;10.93;;;;;;;-5.37;100.00;101264.59;5033986;28;20080;-76
2022/12/16 04:00:23;;;;;;;30.23;11.38;;;;;;;-5.39;100.00;101259.44;5017963;28;20021;-74
2022/12/16 04:02:48;;;;;;;24.67;11.45;;;;;;;-5.41;100.00;101257.78;5000988;28;20441;-76
2022/12/16 04:05:15;;;;;;;28.20;13.65;;;;;;;-5.49;100.00;101255.47;5001377;28;20072;-77
2022/12/16 04:07:40;;;;;;;28.10;12.18;;;;;;;-5.48;100.00;101254.53;5017559;28;20043;-76
2022/12/16 04:10:07;;;;;;;20.88;9.48;;;;;;;-5.40;100.00;101255.13;5001275;28;20139;-75
2022/12/16 04:26:17;;;;;;;28.25;9.27;;;;;;;-5.52;100.00;101247.75;5019743;28;20040;-76
2022/12/16 04:28:43;;;;;;;16.58;8.57;;;;;;;-5.58;100.00;101232.28;5000926;28;20030;-76
2022/12/16 04:31:09;;;;;;;18.15;9.60;;;;;;;-5.61;100.00;101242.84;5033715;28;20029;-75
